Latest Coastal Weather Observations for Kiama

IDN60701

Issued at 9:41 am EST Saturday 1 August 2015 (issued every 10 minutes, with the page automatically refreshed every 10 minutes)

About coastal observations | Map of coastal stations | Coastal observations for NSW | Marine services | Other Formats
Station Details ID: 068242 Name: KIAMA (BOMBO HEADLAND) Lat: -34.65 Lon: 150.86 Height: 15.5 m
Data from the previous 72 hours. | See also: Recent months at Kiama
Date/Time
EST
Temp

°C
Wind Pressure Rain
since 9am
mm
Weather Cloud Vis
km
Sea
Height
m
Swell
Dir
 
Speed
knots
Gust
knots
hPa Trend Height
m
Period
s
Dir
01/09:30am 14.9 NNE 4 6 - - 0.0 - - - - - - -
01/09:00am 13.5 NNE 3 5 - - 0.0 - - - - - - -
01/08:30am 12.9 NNE 4 8 - - 0.0 - - - - - - -
01/08:00am 12.3 NNW 6 8 - - 0.0 - - - - - - -
01/07:30am 12.5 NNW 7 11 - - 0.0 - - - - - - -
01/07:00am 11.6 NNW 7 11 - - 0.0 - - - - - - -
01/06:30am 10.4 W 3 6 - - 0.0 - - - - - - -
01/06:00am 10.6 NW 3 6 - - 0.0 - - - - - - -
01/05:30am 10.8 N 4 6 - - 0.0 - - - - - - -
01/05:00am 12.8 N 7 10 - - 0.0 - - - - - - -
01/04:30am 13.8 NNE 9 13 - - 0.0 - - - - - - -
01/04:00am 10.8 NNE 5 6 - - 0.0 - - - - - - -
01/03:30am 11.1 N 4 5 - - 0.0 - - - - - - -
01/03:00am 11.9 NNW 4 6 - - 0.0 - - - - - - -
01/02:30am 12.3 NW 6 8 - - 0.0 - - - - - - -
01/02:00am 12.6 NW 9 11 - - 0.0 - - - - - - -
01/01:30am 11.5 NW 6 7 - - 0.0 - - - - - - -
01/01:00am 10.4 NNW 1 5 - - 0.0 - - - - - - -
01/12:30am 11.4 WNW 4 5 - - 0.0 - - - - - - -
01/12:00am 11.8 WNW 4 5 - - 0.0 - - - - - - -
 
Date/Time
EST
Temp

°C
Wind Pressure Rain
since 9am
mm
Weather Cloud Vis
km
Sea
Height
m
Swell
Dir
 
Speed
knots
Gust
knots
hPa Trend Height
m
Period
s
Dir
31/11:30pm 11.9 WNW 7 9 - - 0.0 - - - - - - -
31/11:00pm 11.5 WNW 7 8 - - 0.0 - - - - - - -
31/10:30pm 12.5 WNW 6 8 - - 0.0 - - - - - - -
31/10:00pm 11.8 W 6 7 - - 0.0 - - - - - - -
31/09:30pm 11.6 W 6 6 - - 0.0 - - - - - - -
31/09:00pm 12.0 W 6 7 - - 0.0 - - - - - - -
31/08:30pm 11.4 W 6 7 - - 0.0 - - - - - - -
31/08:00pm 10.6 W 5 7 - - 0.0 - - - - - - -
31/07:30pm 11.3 WNW 6 7 - - 0.0 - - - - - - -
31/07:00pm 11.7 WNW 5 7 - - 0.0 - - - - - - -
31/06:30pm 12.0 WNW 4 5 - - 0.0 - - - - - - -
31/06:00pm 13.3 NNE 3 4 - - 0.0 - - - - - - -
31/05:30pm 13.8 NNE 4 5 - - 0.0 - - - - - - -
31/05:00pm 14.6 NE 4 6 - - 0.0 - - - - - - -
31/04:30pm 15.5 NE 5 8 - - 0.0 - - - - - - -
31/04:00pm 15.9 E 8 10 - - 0.0 - - - - - - -
31/03:30pm 15.5 ESE 7 11 - - 0.0 - - - - - - -
31/03:00pm 17.0 E 9 13 - - 0.0 - - - - - - -
31/02:30pm 16.4 SE 12 15 - - 0.0 - - - - - - -
31/02:00pm 16.9 SSE 11 14 - - 0.0 - - - - - - -
31/01:30pm 17.1 SSE 8 11 - - 0.0 - - - - - - -
31/01:00pm 17.7 S 8 13 - - 0.0 - - - - - - -
31/12:30pm 17.5 SSW 10 13 - - 0.0 - - - - - - -
31/12:00pm 17.6 SSW 10 16 - - 0.0 - - - - - - -
31/11:30am 18.0 WSW 7 13 - - 0.0 - - - - - - -
31/11:00am 17.9 W 7 11 - - 0.0 - - - - - - -
31/10:30am 17.6 W 6 10 - - 0.0 - - - - - - -
31/10:00am 17.5 WNW 5 10 - - 0.0 - - - - - - -
31/09:30am 16.6 NW 4 8 - - 0.0 - - - - - - -
31/09:00am 15.4 WNW 7 12 - - 0.0 - - - - - - -
31/08:30am 14.6 W 8 13 - - 0.0 - - - - - - -
31/08:00am 14.3 WSW 7 14 - - 0.0 - - - - - - -
31/07:30am 13.9 W 9 20 - - 0.0 - - - - - - -
31/07:00am 12.9 WNW 10 17 - - 0.0 - - - - - - -
31/06:30am 13.0 WNW 9 15 - - 0.0 - - - - - - -
31/06:00am 13.6 WNW 13 20 - - 0.0 - - - - - - -
31/05:30am 13.9 WNW 14 26 - - 0.0 - - - - - - -
31/05:23am 14.0 W 15 25 - - 0.0 - - - - - - -
31/05:00am 14.0 WSW 8 16 - - 0.0 - - - - - - -
31/04:30am 14.0 WSW 10 15 - - 0.0 - - - - - - -
31/04:00am 14.4 W 12 16 - - 0.0 - - - - - - -
31/03:30am 14.5 W 12 18 - - 0.0 - - - - - - -
31/03:00am 14.7 W 12 19 - - 0.0 - - - - - - -
31/02:30am 14.8 WSW 10 18 - - 0.0 - - - - - - -
31/02:00am 15.2 WNW 10 16 - - 0.0 - - - - - - -
31/01:30am 15.4 W 11 25 - - 0.0 - - - - - - -
31/01:00am 15.0 W 9 20 - - 0.0 - - - - - - -
31/12:30am 15.2 WNW 4 8 - - 0.0 - - - - - - -
31/12:00am 14.7 NNW 3 10 - - 0.0 - - - - - - -
 
Date/Time
EST
Temp

°C
Wind Pressure Rain
since 9am
mm
Weather Cloud Vis
km
Sea
Height
m
Swell
Dir
 
Speed
knots
Gust
knots
hPa Trend Height
m
Period
s
Dir
30/11:30pm 14.5 W 4 7 - - 0.0 - - - - - - -
30/11:00pm 14.4 E 2 3 - - 0.0 - - - - - - -
30/10:30pm 14.8 ENE 1 5 - - 0.0 - - - - - - -
30/10:00pm 14.9 NNE 6 10 - - 0.0 - - - - - - -
30/09:30pm 14.7 NNE 6 8 - - 0.0 - - - - - - -
30/09:00pm 15.2 N 6 10 - - 0.0 - - - - - - -
30/08:30pm 15.1 NNW 3 6 - - 0.0 - - - - - - -
30/08:00pm 15.2 NNW 6 9 - - 0.0 - - - - - - -
30/07:30pm 15.1 NE 4 7 - - 0.0 - - - - - - -
30/07:00pm 15.3 NNE 5 7 - - 0.0 - - - - - - -
30/06:30pm 14.8 N 3 5 - - 0.0 - - - - - - -
30/06:00pm 15.2 NW 4 6 - - 0.0 - - - - - - -
30/05:30pm 15.1 NW 4 6 - - 0.0 - - - - - - -
30/05:00pm 15.7 WNW 3 4 - - 0.0 - - - - - - -
30/04:30pm 16.6 NNW 3 5 - - 0.0 - - - - - - -
30/04:00pm 17.7 NNE 2 6 - - 0.0 - - - - - - -
30/03:30pm 18.2 WNW 5 11 - - 0.0 - - - - - - -
30/03:00pm 18.5 WNW 4 9 - - 0.0 - - - - - - -
30/02:30pm 18.9 WNW 7 10 - - 0.0 - - - - - - -
30/02:00pm 19.4 W 9 15 - - 0.0 - - - - - - -
30/01:30pm 17.9 NNE 7 13 - - 0.0 - - - - - - -
30/01:00pm 17.6 NNE 8 12 - - 0.0 - - - - - - -
30/12:30pm 17.2 NNE 9 13 - - 0.0 - - - - - - -
30/12:00pm 17.2 NNE 8 11 - - 0.0 - - - - - - -
30/11:30am 16.8 N 8 13 - - 0.0 - - - - - - -
30/11:00am 15.5 N 7 11 - - 0.0 - - - - - - -
30/10:30am 15.9 NNE 7 10 - - 0.0 - - - - - - -
30/10:00am 14.9 N 7 11 - - 0.0 - - - - - - -
30/09:30am 13.9 NNE 5 7 - - 0.0 - - - - - - -
30/09:00am 12.0 NNE 3 4 - - 0.0 - - - - - - -
30/08:30am 10.7 NE 3 6 - - 0.0 - - - - - - -
30/08:00am 9.7 WNW 3 5 - - 0.0 - - - - - - -
30/07:30am 8.9 NW 2 4 - - 0.0 - - - - - - -
30/07:00am 8.7 WNW 2 3 - - 0.0 - - - - - - -
30/06:30am 8.4 WNW 3 5 - - 0.0 - - - - - - -
30/06:00am 8.6 NNW 5 7 - - 0.0 - - - - - - -
30/05:30am 8.2 NNW 2 4 - - 0.0 - - - - - - -
30/05:00am 8.7 NW 3 4 - - 0.0 - - - - - - -
30/04:30am 9.2 CALM 0 0 - - 0.0 - - - - - - -
30/04:00am 9.4 NNW 2 2 - - 0.0 - - - - - - -
30/03:30am 10.4 N 3 5 - - 0.0 - - - - - - -
30/03:00am 10.4 NNW 4 6 - - 0.0 - - - - - - -
30/02:30am 10.6 NW 4 5 - - 0.0 - - - - - - -
30/02:00am 11.2 WNW 7 9 - - 0.0 - - - - - - -
30/01:30am 11.8 NW 4 5 - - 0.0 - - - - - - -
30/01:00am 11.9 WNW 6 7 - - 0.0 - - - - - - -
30/12:30am 11.1 WNW 6 8 - - 0.0 - - - - - - -
30/12:00am 11.5 WNW 7 9 - - 0.0 - - - - - - -
 
Date/Time
EST
Temp

°C
Wind Pressure Rain
since 9am
mm
Weather Cloud Vis
km
Sea
Height
m
Swell
Dir
 
Speed
knots
Gust
knots
hPa Trend Height
m
Period
s
Dir
29/11:30pm 11.4 WNW 6 8 - - 0.0 - - - - - - -
29/11:00pm 11.6 WNW 8 11 - - 0.0 - - - - - - -
29/10:30pm 11.5 NW 7 9 - - 0.0 - - - - - - -
29/10:00pm 11.6 WNW 6 8 - - 0.0 - - - - - - -
29/09:30pm 12.0 WNW 7 9 - - 0.0 - - - - - - -
29/09:00pm 11.4 WNW 6 8 - - 0.0 - - - - - - -
29/08:30pm 10.3 W 6 8 - - 0.0 - - - - - - -
29/08:00pm 10.4 WNW 7 8 - - 0.0 - - - - - - -
29/07:30pm 10.7 WNW 6 7 - - 0.0 - - - - - - -
29/07:00pm 10.8 WNW 6 8 - - 0.0 - - - - - - -
29/06:30pm 10.8 WNW 5 6 - - 0.0 - - - - - - -
29/06:00pm 11.9 WNW 4 5 - - 0.0 - - - - - - -
29/05:30pm 12.9 N 3 6 - - 0.0 - - - - - - -
29/05:00pm 13.0 N 4 5 - - 0.0 - - - - - - -
29/04:30pm 14.1 NE 4 7 - - 0.0 - - - - - - -
29/04:00pm 14.9 NE 3 4 - - 0.0 - - - - - - -
29/03:30pm 15.4 NE 3 5 - - 0.0 - - - - - - -
29/03:00pm 15.3 E 3 5 - - 0.0 - - - - - - -
29/02:30pm 14.8 ESE 5 6 - - 0.0 - - - - - - -
29/02:00pm 14.8 SE 5 5 - - 0.0 - - - - - - -
29/01:30pm 15.0 SE 4 5 - - 0.0 - - - - - - -
29/01:00pm 14.8 SE 5 6 - - 0.0 - - - - - - -
29/12:30pm 14.9 SE 6 7 - - 0.0 - - - - - - -
29/12:00pm 14.8 SE 6 7 - - 0.0 - - - - - - -
29/11:30am 14.6 SSE 7 8 - - 0.0 - - - - - - -
29/11:00am 14.4 SSE 7 9 - - 0.0 - - - - - - -
29/10:30am 14.3 SSE 7 10 - - 0.0 - - - - - - -
29/10:00am 14.2 S 6 9 - - 0.0 - - - - - - -

Other Formats:

Comma delimited format used in spreadsheet applications
http://www.bom.gov.au/fwo/IDN60701/IDN60701.95749.axf

JavaScript Object Notation format (JSON) in row-major order
http://www.bom.gov.au/fwo/IDN60701/IDN60701.95749.json